createdAt,value
2018-06-27T00:00:43.753Z,57.00
2018-06-27T00:03:11.704Z,57.41
2018-06-27T00:05:39.395Z,57.50
2018-06-27T00:08:07.376Z,57.54
2018-06-27T00:10:35.030Z,56.96
2018-06-27T00:13:03.064Z,57.04
2018-06-27T00:15:31.069Z,57.58
2018-06-27T00:17:58.687Z,57.40
2018-06-27T00:20:26.666Z,57.09
2018-06-27T00:22:54.676Z,57.51
2018-06-27T00:25:22.338Z,57.98
2018-06-27T00:27:50.327Z,58.07
2018-06-27T00:30:18.238Z,57.46
2018-06-27T00:32:46.137Z,57.55
2018-06-27T00:35:14.106Z,57.59
2018-06-27T00:37:41.765Z,58.27
2018-06-27T00:40:09.415Z,57.58
2018-06-27T00:42:37.298Z,58.06
2018-06-27T00:45:06.110Z,57.66
2018-06-27T00:47:34.041Z,57.88
2018-06-27T00:50:01.695Z,58.04
2018-06-27T00:52:29.652Z,57.79
2018-06-27T00:54:57.956Z,59.08
2018-06-27T00:57:25.867Z,58.76
2018-06-27T00:59:53.843Z,58.65
2018-06-27T01:02:21.493Z,58.07
2018-06-27T01:04:49.261Z,58.66
2018-06-27T01:07:17.510Z,57.94
2018-06-27T01:09:45.741Z,58.05
2018-06-27T01:12:13.724Z,57.83
2018-06-27T01:14:41.363Z,58.93
2018-06-27T01:17:08.981Z,58.10
2018-06-27T01:19:37.141Z,58.11
2018-06-27T01:22:05.147Z,58.17
2018-06-27T01:24:32.777Z,58.79
2018-06-27T01:27:00.732Z,58.66
2018-06-27T01:29:28.426Z,58.78
2018-06-27T01:31:56.045Z,58.36
2018-06-27T01:34:23.928Z,58.63
2018-06-27T01:36:51.824Z,58.70
2018-06-27T01:39:19.484Z,58.65
2018-06-27T01:41:47.126Z,58.55
2018-06-27T01:44:15.097Z,58.44
2018-06-27T01:46:43.066Z,58.72
2018-06-27T01:49:10.993Z,58.64
2018-06-27T01:51:38.660Z,59.39
2018-06-27T01:54:06.421Z,58.84
2018-06-27T01:56:34.046Z,59.00
2018-06-27T01:59:01.944Z,59.06
2018-06-27T02:01:29.878Z,59.02
2018-06-27T02:03:57.773Z,59.11
2018-06-27T02:06:25.394Z,59.74
2018-06-27T02:08:53.037Z,59.04
2018-06-27T02:11:20.668Z,59.52
2018-06-27T02:13:48.541Z,59.09
2018-06-27T02:16:16.195Z,59.57
2018-06-27T02:18:43.838Z,59.02
2018-06-27T02:21:11.861Z,59.26
2018-06-27T02:23:39.451Z,59.56
2018-06-27T02:26:07.060Z,59.02
2018-06-27T02:28:35.037Z,59.22
2018-06-27T02:31:02.885Z,59.54
2018-06-27T02:33:30.700Z,59.01
2018-06-27T02:35:59.663Z,59.73
2018-06-27T02:38:27.563Z,59.07
2018-06-27T02:40:55.873Z,59.18
2018-06-27T02:43:23.794Z,59.74
2018-06-27T02:45:51.627Z,59.71
2018-06-27T02:48:19.483Z,59.05
2018-06-27T02:50:47.092Z,59.04
2018-06-27T02:53:15.520Z,59.10
2018-06-27T02:55:43.137Z,59.01
2018-06-27T02:58:11.149Z,59.58
2018-06-27T03:00:38.785Z,59.33
2018-06-27T03:03:06.783Z,59.58
2018-06-27T03:05:34.450Z,59.43
2018-06-27T03:08:03.004Z,59.47
2018-06-27T03:10:30.893Z,58.93
2018-06-27T03:12:58.780Z,59.04
2018-06-27T03:15:26.446Z,59.29
2018-06-27T03:17:54.085Z,59.35
2018-06-27T03:20:21.737Z,59.05
2018-06-27T03:22:49.408Z,59.30
2018-06-27T03:25:17.048Z,59.17
2018-06-27T03:27:45.007Z,59.84
2018-06-27T03:30:13.011Z,60.03
2018-06-27T03:32:40.990Z,59.44
2018-06-27T03:35:08.865Z,59.99
2018-06-27T03:37:36.505Z,59.67
2018-06-27T03:40:04.125Z,59.34
2018-06-27T03:42:31.787Z,59.33
2018-06-27T03:44:59.836Z,59.93
2018-06-27T03:47:27.457Z,59.36
2018-06-27T03:49:55.355Z,59.63
2018-06-27T03:52:23.118Z,59.47
2018-06-27T03:54:51.058Z,59.67
2018-06-27T03:57:18.680Z,59.41
2018-06-27T03:59:46.604Z,59.88
2018-06-27T04:02:14.869Z,59.78
2018-06-27T04:04:42.566Z,59.64
2018-06-27T04:07:10.631Z,59.64
2018-06-27T04:09:38.246Z,59.14
2018-06-27T04:12:06.268Z,58.79
2018-06-27T04:14:34.049Z,58.54
2018-06-27T04:17:01.938Z,58.18
2018-06-27T04:19:29.546Z,58.15
2018-06-27T04:21:57.729Z,58.66
2018-06-27T04:24:25.440Z,58.48
2018-06-27T04:26:53.567Z,58.58
2018-06-27T04:32:23.514Z,58.66
2018-06-27T04:34:51.156Z,58.28
2018-06-27T04:37:19.303Z,58.91
2018-06-27T04:39:46.996Z,58.35
2018-06-27T04:42:15.041Z,59.00
2018-06-27T04:44:42.751Z,58.99
2018-06-27T04:47:10.737Z,58.34
2018-06-27T04:49:38.424Z,58.99
2018-06-27T04:52:06.486Z,58.22
2018-06-27T04:54:34.450Z,58.07
2018-06-27T04:57:02.229Z,58.21
2018-06-27T04:59:30.016Z,58.65
2018-06-27T05:01:57.873Z,57.98
2018-06-27T05:04:25.476Z,58.61
2018-06-27T05:06:54.109Z,57.71
2018-06-27T05:09:22.028Z,58.39
2018-06-27T05:11:49.636Z,58.05
2018-06-27T05:14:17.284Z,57.69
2018-06-27T05:16:44.987Z,58.03
2018-06-27T05:19:12.983Z,58.18
2018-06-27T05:21:40.977Z,57.63
2018-06-27T05:24:08.603Z,58.18
2018-06-27T05:26:36.280Z,57.60
2018-06-27T05:29:03.998Z,57.65
2018-06-27T05:31:32.524Z,57.54
2018-06-27T05:34:00.267Z,57.77
2018-06-27T05:36:27.821Z,57.71
2018-06-27T05:38:55.712Z,58.14
2018-06-27T05:41:23.384Z,58.78
2018-06-27T05:43:51.015Z,58.91
2018-06-27T05:46:18.919Z,58.38
2018-06-27T05:48:46.540Z,58.49
2018-06-27T05:51:14.160Z,58.25
2018-06-27T05:53:41.886Z,57.59
2018-06-27T05:56:09.667Z,58.07
2018-06-27T05:58:37.441Z,57.44
2018-06-27T06:01:05.638Z,57.19
2018-06-27T06:03:33.314Z,57.08
2018-06-27T06:06:00.994Z,57.56
2018-06-27T06:08:28.836Z,57.60
2018-06-27T06:10:56.783Z,56.93
2018-06-27T06:13:24.687Z,56.93
2018-06-27T06:15:52.340Z,56.90
2018-06-27T06:18:20.135Z,57.02
2018-06-27T06:20:47.849Z,56.92
2018-06-27T06:23:15.819Z,57.73
2018-06-27T06:25:43.626Z,57.58
2018-06-27T06:28:11.577Z,57.38
2018-06-27T06:30:39.284Z,57.75
2018-06-27T06:33:07.045Z,57.93
2018-06-27T06:35:34.744Z,57.60
2018-06-27T06:38:02.399Z,56.80
2018-06-27T06:40:30.124Z,57.29
2018-06-27T06:42:57.944Z,56.72
2018-06-27T06:45:26.273Z,56.52
2018-06-27T06:47:53.886Z,57.13
2018-06-27T06:50:21.569Z,56.47
2018-06-27T06:52:49.265Z,56.95
2018-06-27T06:55:16.923Z,56.85
2018-06-27T06:57:45.228Z,56.92
2018-06-27T07:00:12.988Z,57.08
2018-06-27T07:02:40.621Z,57.10
2018-06-27T07:05:08.385Z,56.29
2018-06-27T07:07:36.102Z,56.60
2018-06-27T07:10:03.929Z,57.07
2018-06-27T07:12:31.591Z,57.26
2018-06-27T07:14:59.252Z,57.15
2018-06-27T07:17:26.945Z,57.58
2018-06-27T07:19:54.594Z,57.01
2018-06-27T07:22:22.335Z,57.74
2018-06-27T07:24:50.211Z,57.86
2018-06-27T07:27:18.164Z,57.79
2018-06-27T07:29:46.668Z,57.51
2018-06-27T07:32:14.349Z,57.04
2018-06-27T07:34:42.233Z,56.78
2018-06-27T07:37:09.888Z,56.71
2018-06-27T07:39:37.526Z,56.28
2018-06-27T07:42:05.317Z,56.10
2018-06-27T07:44:33.031Z,56.09
2018-06-27T07:47:00.882Z,56.42
2018-06-27T07:49:28.925Z,55.94
2018-06-27T07:51:56.588Z,56.71
2018-06-27T07:54:24.271Z,56.32
2018-06-27T07:56:51.953Z,56.41
2018-06-27T07:59:19.872Z,55.49
2018-06-27T08:01:47.798Z,56.35
2018-06-27T08:04:15.465Z,56.25
2018-06-27T08:06:45.002Z,55.55
2018-06-27T08:09:13.042Z,55.66
2018-06-27T08:11:41.979Z,55.60
2018-06-27T08:14:09.666Z,55.56
2018-06-27T08:16:37.588Z,56.09
2018-06-27T08:19:05.968Z,56.00
2018-06-27T08:21:33.623Z,55.75
2018-06-27T08:24:01.818Z,55.95
2018-06-27T08:26:29.516Z,55.91
2018-06-27T08:28:57.472Z,55.99
2018-06-27T08:31:25.572Z,55.33
2018-06-27T08:33:53.453Z,55.81
2018-06-27T08:36:21.088Z,55.34
2018-06-27T08:38:48.748Z,55.54
2018-06-27T08:41:16.714Z,55.45
2018-06-27T08:43:44.739Z,55.17
2018-06-27T08:46:12.912Z,55.81
2018-06-27T08:48:40.655Z,55.81
2018-06-27T08:51:08.328Z,55.52
2018-06-27T08:53:36.001Z,54.81
2018-06-27T08:56:03.706Z,54.83
2018-06-27T08:58:31.573Z,55.36
2018-06-27T09:00:59.214Z,55.37
2018-06-27T09:03:27.230Z,54.64
2018-06-27T09:05:54.887Z,55.19
2018-06-27T09:08:22.681Z,55.39
2018-06-27T09:10:50.666Z,55.08
2018-06-27T09:13:18.583Z,55.23
2018-06-27T09:15:46.587Z,54.81
2018-06-27T09:18:14.489Z,54.90
2018-06-27T09:20:42.207Z,54.36
2018-06-27T09:23:10.197Z,54.13
2018-06-27T09:25:38.115Z,54.67
2018-06-27T09:28:05.925Z,54.64
2018-06-27T09:30:33.569Z,54.42
2018-06-27T09:33:01.214Z,54.62
2018-06-27T09:35:29.747Z,54.05
2018-06-27T09:37:57.440Z,54.62
2018-06-27T09:40:25.343Z,53.89
2018-06-27T09:42:53.442Z,53.57
2018-06-27T09:45:21.110Z,53.72
2018-06-27T09:47:48.739Z,54.13
2018-06-27T09:50:16.461Z,53.51
2018-06-27T09:52:44.540Z,53.46
2018-06-27T09:55:12.313Z,53.99
2018-06-27T09:57:39.977Z,53.17
2018-06-27T10:00:12.136Z,53.33
2018-06-27T10:02:40.095Z,53.83
2018-06-27T10:05:07.750Z,53.83
2018-06-27T10:07:35.788Z,53.79
2018-06-27T10:10:03.414Z,53.20
2018-06-27T10:12:31.372Z,53.40
2018-06-27T10:14:59.084Z,53.39
2018-06-27T10:17:26.953Z,53.55
2018-06-27T10:19:54.573Z,53.32
2018-06-27T10:22:22.396Z,52.86
2018-06-27T10:24:50.446Z,53.45
2018-06-27T10:27:18.115Z,52.54
2018-06-27T10:29:46.095Z,52.89
2018-06-27T10:32:13.822Z,53.48
2018-06-27T10:34:41.450Z,53.41
2018-06-27T10:37:09.113Z,52.64
2018-06-27T10:39:36.773Z,52.83
2018-06-27T10:42:04.893Z,53.42
2018-06-27T10:44:33.026Z,53.52
2018-06-27T10:47:01.625Z,53.70
2018-06-27T10:49:30.012Z,53.50
2018-06-27T10:51:57.707Z,52.69
2018-06-27T10:54:25.489Z,52.88
2018-06-27T10:56:53.249Z,53.31
2018-06-27T10:59:21.039Z,53.12
2018-06-27T11:01:48.699Z,53.06
2018-06-27T11:04:16.338Z,52.49
2018-06-27T11:06:44.536Z,52.36
2018-06-27T11:09:12.482Z,53.17
2018-06-27T11:11:40.090Z,52.52
2018-06-27T11:14:07.759Z,52.24
2018-06-27T11:16:36.051Z,52.21
2018-06-27T11:19:03.687Z,52.69
2018-06-27T11:21:31.282Z,52.93
2018-06-27T11:23:59.022Z,52.91
2018-06-27T11:26:26.667Z,52.53
2018-06-27T11:28:54.293Z,53.01
2018-06-27T11:31:22.172Z,52.70
2018-06-27T11:33:49.773Z,52.82
2018-06-27T11:38:44.864Z,52.19
2018-06-27T11:41:13.080Z,51.86
2018-06-27T11:43:41.041Z,52.32
2018-06-27T11:46:08.672Z,52.96
2018-06-27T11:48:36.794Z,53.07
2018-06-27T11:51:05.484Z,53.42
2018-06-27T11:53:33.493Z,53.43
2018-06-27T11:56:01.143Z,53.74
2018-06-27T11:58:29.341Z,53.58
2018-06-27T12:00:57.336Z,53.63
2018-06-27T12:03:24.962Z,53.43
2018-06-27T12:05:52.673Z,54.09
2018-06-27T12:08:20.602Z,54.02
2018-06-27T12:10:48.579Z,52.81
2018-06-27T12:13:16.313Z,52.99
2018-06-27T12:15:43.906Z,52.42
2018-06-27T12:18:11.526Z,52.61
2018-06-27T12:20:39.467Z,52.90
2018-06-27T12:23:07.132Z,52.34
2018-06-27T12:25:34.994Z,52.79
2018-06-27T12:28:02.873Z,53.18
2018-06-27T12:30:30.523Z,53.14
2018-06-27T12:32:58.152Z,53.26
2018-06-27T12:35:25.933Z,53.24
2018-06-27T12:37:54.069Z,52.79
2018-06-27T12:40:21.837Z,52.97
2018-06-27T12:45:52.306Z,53.24
2018-06-27T12:48:19.897Z,53.84
2018-06-27T12:50:47.571Z,53.33
2018-06-27T12:53:15.386Z,54.15
2018-06-27T12:55:43.041Z,53.83
2018-06-27T12:58:10.624Z,53.81
2018-06-27T13:00:38.444Z,53.37
2018-06-27T13:03:06.244Z,53.11
2018-06-27T13:05:33.887Z,53.56
2018-06-27T13:08:01.555Z,53.21
2018-06-27T13:10:29.393Z,53.57
2018-06-27T13:12:57.630Z,53.60
2018-06-27T13:15:25.423Z,52.88
2018-06-27T13:17:53.001Z,53.02
2018-06-27T13:20:20.594Z,53.27
2018-06-27T13:22:48.155Z,52.87
2018-06-27T13:25:15.797Z,52.52
2018-06-27T13:27:43.428Z,52.67
2018-06-27T13:30:11.043Z,53.27
2018-06-27T13:32:38.857Z,52.88
2018-06-27T13:35:06.565Z,52.92
2018-06-27T13:37:34.742Z,52.82
2018-06-27T13:40:02.708Z,52.49
2018-06-27T13:42:30.328Z,52.91
2018-06-27T13:44:58.200Z,52.54
2018-06-27T13:47:26.126Z,52.62
2018-06-27T13:49:53.722Z,51.78
2018-06-27T13:52:21.846Z,52.28
2018-06-27T13:54:54.468Z,51.95
2018-06-27T13:57:22.414Z,51.71
2018-06-27T13:59:50.399Z,51.95
2018-06-27T14:02:18.183Z,51.90
2018-06-27T14:04:45.835Z,51.25
2018-06-27T14:07:13.484Z,51.78
2018-06-27T14:09:41.429Z,51.83
2018-06-27T14:12:09.046Z,51.50
2018-06-27T14:14:36.662Z,50.70
2018-06-27T14:17:04.478Z,51.32
2018-06-27T14:19:32.635Z,50.70
2018-06-27T14:22:00.502Z,50.68
2018-06-27T14:24:28.166Z,50.53
2018-06-27T14:26:55.803Z,50.13
2018-06-27T14:29:23.375Z,49.98
2018-06-27T14:31:51.056Z,48.79
2018-06-27T14:34:19.188Z,48.33
2018-06-27T14:36:46.893Z,44.27
2018-06-27T14:39:14.495Z,41.61
2018-06-27T14:41:42.135Z,40.38
2018-06-27T14:44:09.722Z,40.46
2018-06-27T14:46:37.469Z,39.35
2018-06-27T14:49:05.126Z,38.12
2018-06-27T14:51:33.473Z,38.56
2018-06-27T14:54:01.113Z,39.63
2018-06-27T14:56:28.737Z,38.96
2018-06-27T14:58:56.788Z,38.35
2018-06-27T15:01:24.464Z,39.74
2018-06-27T15:03:52.259Z,37.92
2018-06-27T15:06:19.918Z,39.51
2018-06-27T15:08:48.401Z,41.88
2018-06-27T15:11:16.010Z,44.16
2018-06-27T15:13:43.606Z,45.24
2018-06-27T15:16:11.606Z,46.12
2018-06-27T15:18:40.531Z,46.03
2018-06-27T15:21:08.185Z,46.70
2018-06-27T15:23:35.988Z,47.61
2018-06-27T15:26:04.062Z,47.32
2018-06-27T15:28:31.739Z,47.15
2018-06-27T15:30:59.348Z,48.22
2018-06-27T15:33:27.166Z,47.80
2018-06-27T15:35:54.757Z,48.09
2018-06-27T15:38:22.342Z,48.67
2018-06-27T15:40:50.188Z,48.48
2018-06-27T15:43:21.441Z,48.71
2018-06-27T15:45:49.553Z,48.18
2018-06-27T15:48:26.724Z,48.97
2018-06-27T15:53:27.763Z,48.75
2018-06-27T15:55:56.025Z,49.14
2018-06-27T15:58:23.942Z,48.78
2018-06-27T16:00:51.865Z,48.38
2018-06-27T16:03:19.689Z,48.17
2018-06-27T16:05:47.577Z,48.14
2018-06-27T16:08:15.283Z,47.92
2018-06-27T16:10:43.070Z,48.32
2018-06-27T16:13:11.251Z,48.68
2018-06-27T16:15:38.905Z,49.01
2018-06-27T16:18:06.669Z,48.69
2018-06-27T16:20:34.653Z,48.45
2018-06-27T16:23:04.483Z,48.63
2018-06-27T16:25:32.120Z,48.08
2018-06-27T16:27:59.741Z,47.88
2018-06-27T16:30:27.602Z,47.78
2018-06-27T16:32:55.215Z,48.22
2018-06-27T16:35:23.008Z,47.77
2018-06-27T16:37:50.625Z,46.90
2018-06-27T16:40:18.238Z,46.31
2018-06-27T16:42:46.251Z,46.24
2018-06-27T16:45:13.890Z,45.52
2018-06-27T16:47:41.551Z,45.96
2018-06-27T16:50:09.545Z,46.09
2018-06-27T16:52:37.191Z,45.15
2018-06-27T16:55:05.062Z,45.31
2018-06-27T16:57:32.656Z,45.17
2018-06-27T17:00:00.638Z,44.08
2018-06-27T17:02:28.277Z,44.73
2018-06-27T17:04:55.989Z,43.48
2018-06-27T17:07:23.932Z,43.54
2018-06-27T17:09:51.521Z,43.23
2018-06-27T17:12:19.470Z,43.54
2018-06-27T17:14:47.059Z,43.79
2018-06-27T17:17:14.904Z,43.02
2018-06-27T17:19:42.491Z,43.43
2018-06-27T17:22:10.418Z,42.34
2018-06-27T17:24:38.249Z,43.47
2018-06-27T17:27:06.201Z,42.84
2018-06-27T17:29:34.032Z,42.67
2018-06-27T17:32:01.635Z,42.68
2018-06-27T17:34:29.274Z,42.22
2018-06-27T17:36:57.129Z,43.41
2018-06-27T17:39:24.776Z,43.05
2018-06-27T17:41:52.748Z,42.39
2018-06-27T17:44:20.718Z,42.97
2018-06-27T17:46:48.698Z,42.38
2018-06-27T17:49:16.356Z,41.63
2018-06-27T17:51:44.002Z,42.23
2018-06-27T17:54:11.663Z,42.10
2018-06-27T17:56:39.369Z,42.83
2018-06-27T17:59:07.187Z,41.82
2018-06-27T18:01:35.962Z,41.84
2018-06-27T18:04:03.882Z,42.24
2018-06-27T18:06:31.581Z,41.91
2018-06-27T18:08:59.465Z,41.87
2018-06-27T18:11:27.542Z,42.97
2018-06-27T18:13:55.916Z,42.40
2018-06-27T18:16:23.542Z,42.74
2018-06-27T18:18:51.314Z,42.39
2018-06-27T18:21:19.237Z,42.97
2018-06-27T18:23:47.057Z,42.11
2018-06-27T18:29:24.058Z,40.71
2018-06-27T18:31:51.684Z,41.38
2018-06-27T18:34:19.643Z,41.00
2018-06-27T18:36:47.687Z,40.93
2018-06-27T18:39:15.306Z,40.69
2018-06-27T18:41:42.926Z,40.85
2018-06-27T18:44:10.847Z,40.71
2018-06-27T18:46:38.959Z,41.55
2018-06-27T18:49:06.732Z,41.74
2018-06-27T18:51:34.314Z,41.24
2018-06-27T18:54:01.881Z,41.63
2018-06-27T18:56:29.836Z,41.76
2018-06-27T18:58:57.424Z,41.66
2018-06-27T19:01:25.326Z,41.69
2018-06-27T19:03:53.333Z,42.91
2018-06-27T19:06:21.002Z,42.33
2018-06-27T19:08:48.665Z,42.53
2018-06-27T19:11:16.794Z,42.97
2018-06-27T19:13:44.392Z,43.41
2018-06-27T19:16:12.199Z,43.28
2018-06-27T19:18:40.524Z,43.43
2018-06-27T19:21:08.358Z,44.34
2018-06-27T19:23:36.301Z,44.87
2018-06-27T19:26:03.986Z,44.16
2018-06-27T19:28:31.623Z,45.89
2018-06-27T19:30:59.654Z,45.45
2018-06-27T19:33:27.681Z,46.64
2018-06-27T19:35:55.550Z,45.98
2018-06-27T19:38:23.491Z,46.51
2018-06-27T19:40:51.402Z,46.74
2018-06-27T19:43:19.005Z,47.09
2018-06-27T19:45:46.725Z,46.96
2018-06-27T19:48:14.324Z,47.53
2018-06-27T19:50:42.747Z,47.38
2018-06-27T19:53:10.424Z,47.54
2018-06-27T19:55:38.201Z,47.79
2018-06-27T19:58:06.782Z,48.25
2018-06-27T20:00:35.517Z,47.48
2018-06-27T20:03:05.082Z,48.23
2018-06-27T20:05:34.537Z,48.50
2018-06-27T20:08:04.548Z,47.99
2018-06-27T20:10:33.460Z,47.68
2018-06-27T20:13:02.037Z,48.51
2018-06-27T20:15:30.812Z,49.04
2018-06-27T20:18:00.483Z,48.43
2018-06-27T20:20:29.820Z,48.37
2018-06-27T20:22:58.764Z,48.48
2018-06-27T20:25:27.840Z,49.03
2018-06-27T20:27:56.696Z,49.48
2018-06-27T20:30:25.802Z,49.54
2018-06-27T20:32:54.820Z,49.61
2018-06-27T20:35:23.623Z,49.64
2018-06-27T20:37:52.471Z,49.85
2018-06-27T20:40:21.373Z,50.07
2018-06-27T20:42:50.049Z,50.07
2018-06-27T20:45:19.069Z,50.26
2018-06-27T20:47:48.196Z,49.30
2018-06-27T20:50:17.361Z,50.42
2018-06-27T20:52:46.593Z,50.09
2018-06-27T20:55:14.527Z,50.61
2018-06-27T20:57:42.174Z,50.87
2018-06-27T21:00:11.548Z,50.07
2018-06-27T21:02:40.493Z,50.68
2018-06-27T21:05:09.968Z,51.00
2018-06-27T21:07:38.800Z,50.71
2018-06-27T21:10:07.665Z,50.40
2018-06-27T21:12:36.678Z,50.35
2018-06-27T21:15:05.735Z,49.85
2018-06-27T21:17:34.950Z,51.46
2018-06-27T21:20:04.185Z,51.25
2018-06-27T21:22:33.176Z,51.16
2018-06-27T21:25:02.621Z,50.48
2018-06-27T21:27:31.555Z,51.42
2018-06-27T21:30:00.679Z,51.36
2018-06-27T21:32:29.365Z,51.68
2018-06-27T21:34:58.759Z,51.17
2018-06-27T21:37:28.322Z,51.72
2018-06-27T21:39:57.722Z,51.85
2018-06-27T21:42:25.700Z,51.41
2018-06-27T21:44:56.308Z,51.15
2018-06-27T21:47:25.609Z,51.58
2018-06-27T21:49:54.991Z,52.20
2018-06-27T21:52:24.340Z,52.21
2018-06-27T21:54:53.447Z,51.85
2018-06-27T21:57:22.891Z,51.71
2018-06-27T21:59:52.405Z,52.10
2018-06-27T22:02:21.436Z,52.13
2018-06-27T22:04:50.404Z,51.99
2018-06-27T22:07:20.469Z,52.90
2018-06-27T22:09:48.330Z,52.20
2018-06-27T22:12:15.947Z,51.79
2018-06-27T22:14:43.582Z,52.51
2018-06-27T22:17:12.494Z,52.72
2018-06-27T22:19:41.222Z,52.29
2018-06-27T22:22:09.937Z,53.07
2018-06-27T22:24:39.056Z,52.87
2018-06-27T22:27:08.310Z,52.27
2018-06-27T22:29:38.483Z,52.47
2018-06-27T22:32:07.503Z,53.01
2018-06-27T22:34:36.813Z,52.97
2018-06-27T22:37:04.621Z,52.92
2018-06-27T22:39:32.249Z,52.78
2018-06-27T22:42:00.843Z,53.22
2018-06-27T22:44:29.831Z,52.76
2018-06-27T22:46:58.997Z,53.35
2018-06-27T22:49:27.877Z,52.86
2018-06-27T22:51:56.691Z,53.03
2018-06-27T22:54:25.649Z,52.70
2018-06-27T22:56:55.185Z,53.70
2018-06-27T22:59:24.531Z,52.80
2018-06-27T23:01:53.511Z,52.62
2018-06-27T23:04:22.793Z,52.86
2018-06-27T23:06:51.863Z,53.50
2018-06-27T23:09:20.544Z,52.94
2018-06-27T23:11:49.058Z,53.73
2018-06-27T23:14:18.147Z,53.84
2018-06-27T23:16:47.034Z,53.76
2018-06-27T23:19:15.880Z,53.32
2018-06-27T23:21:44.220Z,53.11
2018-06-27T23:24:11.841Z,53.96
2018-06-27T23:26:39.713Z,54.15
2018-06-27T23:29:07.401Z,54.54
2018-06-27T23:31:35.247Z,54.38
2018-06-27T23:34:02.849Z,53.85
2018-06-27T23:36:30.432Z,54.54
2018-06-27T23:38:58.141Z,54.65
2018-06-27T23:41:25.989Z,54.61
2018-06-27T23:43:53.587Z,54.71
2018-06-27T23:46:21.278Z,54.81
2018-06-27T23:48:49.363Z,54.13
2018-06-27T23:51:16.954Z,54.91
2018-06-27T23:53:44.626Z,54.68
2018-06-27T23:56:12.823Z,54.37
2018-06-27T23:58:40.634Z,55.00
